sensor_id;sensor_type;location;lat;lon;timestamp;temperature;humidity
9816;DHT22;4947;44.526;11.360;2022-08-06T00:00:01;25.70;77.80
9816;DHT22;4947;44.526;11.360;2022-08-06T00:02:30;25.80;77.60
9816;DHT22;4947;44.526;11.360;2022-08-06T00:04:59;25.80;77.60
9816;DHT22;4947;44.526;11.360;2022-08-06T00:07:28;25.80;77.40
9816;DHT22;4947;44.526;11.360;2022-08-06T00:09:56;25.80;78.20
9816;DHT22;4947;44.526;11.360;2022-08-06T00:12:24;25.80;77.60
9816;DHT22;4947;44.526;11.360;2022-08-06T00:14:51;25.70;77.60
9816;DHT22;4947;44.526;11.360;2022-08-06T00:17:18;25.80;77.60
9816;DHT22;4947;44.526;11.360;2022-08-06T00:19:47;25.80;78.20
9816;DHT22;4947;44.526;11.360;2022-08-06T00:22:15;25.90;79.70
9816;DHT22;4947;44.526;11.360;2022-08-06T00:24:44;26.00;77.40
9816;DHT22;4947;44.526;11.360;2022-08-06T00:27:12;26.10;75.80
9816;DHT22;4947;44.526;11.360;2022-08-06T00:29:39;26.30;76.00
9816;DHT22;4947;44.526;11.360;2022-08-06T00:32:07;26.30;76.40
9816;DHT22;4947;44.526;11.360;2022-08-06T00:34:34;26.40;76.50
9816;DHT22;4947;44.526;11.360;2022-08-06T00:37:02;26.50;76.40
9816;DHT22;4947;44.526;11.360;2022-08-06T00:39:29;26.50;76.30
9816;DHT22;4947;44.526;11.360;2022-08-06T00:41:59;26.40;76.10
9816;DHT22;4947;44.526;11.360;2022-08-06T00:44:27;26.40;77.20
9816;DHT22;4947;44.526;11.360;2022-08-06T00:46:54;26.40;76.90
9816;DHT22;4947;44.526;11.360;2022-08-06T00:49:22;26.40;76.40
9816;DHT22;4947;44.526;11.360;2022-08-06T00:51:50;26.30;76.40
9816;DHT22;4947;44.526;11.360;2022-08-06T00:54:18;26.30;76.80
9816;DHT22;4947;44.526;11.360;2022-08-06T00:56:45;26.20;77.90
9816;DHT22;4947;44.526;11.360;2022-08-06T00:59:14;26.20;77.40
9816;DHT22;4947;44.526;11.360;2022-08-06T01:01:42;26.10;76.90
9816;DHT22;4947;44.526;11.360;2022-08-06T01:04:09;26.00;77.30
9816;DHT22;4947;44.526;11.360;2022-08-06T01:06:36;25.90;78.60
9816;DHT22;4947;44.526;11.360;2022-08-06T01:09:04;26.00;79.80
9816;DHT22;4947;44.526;11.360;2022-08-06T01:11:32;26.00;79.20
9816;DHT22;4947;44.526;11.360;2022-08-06T01:13:59;25.90;79.70
9816;DHT22;4947;44.526;11.360;2022-08-06T01:16:39;25.90;79.20
9816;DHT22;4947;44.526;11.360;2022-08-06T01:19:22;25.90;78.70
9816;DHT22;4947;44.526;11.360;2022-08-06T01:22:04;25.80;78.60
9816;DHT22;4947;44.526;11.360;2022-08-06T01:24:50;25.80;79.30
9816;DHT22;4947;44.526;11.360;2022-08-06T01:27:41;25.80;80.30
9816;DHT22;4947;44.526;11.360;2022-08-06T01:30:12;25.80;78.50
9816;DHT22;4947;44.526;11.360;2022-08-06T01:32:45;25.80;79.10
9816;DHT22;4947;44.526;11.360;2022-08-06T01:35:17;25.80;78.30
9816;DHT22;4947;44.526;11.360;2022-08-06T01:37:52;25.80;78.10
9816;DHT22;4947;44.526;11.360;2022-08-06T01:40:25;25.90;78.00
9816;DHT22;4947;44.526;11.360;2022-08-06T01:42:56;25.90;77.10
9816;DHT22;4947;44.526;11.360;2022-08-06T01:45:28;25.90;77.60
9816;DHT22;4947;44.526;11.360;2022-08-06T01:47:58;25.90;77.30
9816;DHT22;4947;44.526;11.360;2022-08-06T01:50:28;25.90;77.80
9816;DHT22;4947;44.526;11.360;2022-08-06T01:52:58;25.90;78.00
9816;DHT22;4947;44.526;11.360;2022-08-06T01:55:30;25.90;77.90
9816;DHT22;4947;44.526;11.360;2022-08-06T01:58:01;26.00;77.80
9816;DHT22;4947;44.526;11.360;2022-08-06T02:00:31;26.00;77.70
9816;DHT22;4947;44.526;11.360;2022-08-06T02:03:01;26.00;77.60
9816;DHT22;4947;44.526;11.360;2022-08-06T02:05:31;26.00;76.80
9816;DHT22;4947;44.526;11.360;2022-08-06T02:08:01;26.00;77.20
9816;DHT22;4947;44.526;11.360;2022-08-06T02:10:32;25.90;77.10
9816;DHT22;4947;44.526;11.360;2022-08-06T02:13:03;25.90;77.90
9816;DHT22;4947;44.526;11.360;2022-08-06T02:15:32;25.80;78.00
9816;DHT22;4947;44.526;11.360;2022-08-06T02:18:02;25.70;78.80
9816;DHT22;4947;44.526;11.360;2022-08-06T02:20:33;25.70;79.10
9816;DHT22;4947;44.526;11.360;2022-08-06T02:23:02;25.70;79.50
9816;DHT22;4947;44.526;11.360;2022-08-06T02:25:31;25.70;79.90
9816;DHT22;4947;44.526;11.360;2022-08-06T02:28:02;25.70;79.70
9816;DHT22;4947;44.526;11.360;2022-08-06T02:30:34;25.70;81.10
9816;DHT22;4947;44.526;11.360;2022-08-06T02:33:03;25.70;80.00
9816;DHT22;4947;44.526;11.360;2022-08-06T02:35:32;25.60;80.30
9816;DHT22;4947;44.526;11.360;2022-08-06T02:38:07;25.50;80.20
9816;DHT22;4947;44.526;11.360;2022-08-06T02:40:42;25.50;80.90
9816;DHT22;4947;44.526;11.360;2022-08-06T02:43:15;25.50;81.30
9816;DHT22;4947;44.526;11.360;2022-08-06T02:45:47;25.50;80.70
9816;DHT22;4947;44.526;11.360;2022-08-06T02:48:19;25.50;80.80
9816;DHT22;4947;44.526;11.360;2022-08-06T02:50:49;25.50;80.80
9816;DHT22;4947;44.526;11.360;2022-08-06T02:53:21;25.50;81.00
9816;DHT22;4947;44.526;11.360;2022-08-06T02:55:53;25.50;81.10
9816;DHT22;4947;44.526;11.360;2022-08-06T02:58:28;25.50;81.00
9816;DHT22;4947;44.526;11.360;2022-08-06T03:01:02;25.60;81.10
9816;DHT22;4947;44.526;11.360;2022-08-06T03:03:31;25.50;81.00
9816;DHT22;4947;44.526;11.360;2022-08-06T03:06:01;25.50;81.10
9816;DHT22;4947;44.526;11.360;2022-08-06T03:08:30;25.60;81.50
9816;DHT22;4947;44.526;11.360;2022-08-06T03:11:00;25.60;81.00
9816;DHT22;4947;44.526;11.360;2022-08-06T03:13:31;25.60;81.60
9816;DHT22;4947;44.526;11.360;2022-08-06T03:16:00;25.50;81.20
9816;DHT22;4947;44.526;11.360;2022-08-06T03:18:29;25.50;82.20
9816;DHT22;4947;44.526;11.360;2022-08-06T03:20:58;25.50;81.30
9816;DHT22;4947;44.526;11.360;2022-08-06T03:23:26;25.50;81.90
9816;DHT22;4947;44.526;11.360;2022-08-06T03:25:55;25.50;82.20
9816;DHT22;4947;44.526;11.360;2022-08-06T03:28:24;25.60;81.70
9816;DHT22;4947;44.526;11.360;2022-08-06T03:30:54;25.60;82.30
9816;DHT22;4947;44.526;11.360;2022-08-06T03:33:22;25.60;81.40
9816;DHT22;4947;44.526;11.360;2022-08-06T03:35:52;25.60;81.00
9816;DHT22;4947;44.526;11.360;2022-08-06T03:38:21;25.60;81.00
9816;DHT22;4947;44.526;11.360;2022-08-06T03:40:49;25.60;80.90
9816;DHT22;4947;44.526;11.360;2022-08-06T03:43:17;25.70;80.90
9816;DHT22;4947;44.526;11.360;2022-08-06T03:45:50;25.70;81.20
9816;DHT22;4947;44.526;11.360;2022-08-06T03:48:24;25.60;80.70
9816;DHT22;4947;44.526;11.360;2022-08-06T03:50:53;25.60;80.60
9816;DHT22;4947;44.526;11.360;2022-08-06T03:53:24;25.60;80.80
9816;DHT22;4947;44.526;11.360;2022-08-06T03:55:56;25.50;80.90
9816;DHT22;4947;44.526;11.360;2022-08-06T03:58:25;25.50;81.40
9816;DHT22;4947;44.526;11.360;2022-08-06T04:00:58;25.40;81.80
9816;DHT22;4947;44.526;11.360;2022-08-06T04:03:28;25.40;81.90
9816;DHT22;4947;44.526;11.360;2022-08-06T04:05:56;25.30;82.00
9816;DHT22;4947;44.526;11.360;2022-08-06T04:08:25;25.40;82.60
9816;DHT22;4947;44.526;11.360;2022-08-06T04:10:53;25.40;82.10
9816;DHT22;4947;44.526;11.360;2022-08-06T04:13:23;25.40;82.20
9816;DHT22;4947;44.526;11.360;2022-08-06T04:15:53;25.40;83.40
9816;DHT22;4947;44.526;11.360;2022-08-06T04:18:24;25.40;83.10
9816;DHT22;4947;44.526;11.360;2022-08-06T04:20:55;25.40;83.50
9816;DHT22;4947;44.526;11.360;2022-08-06T04:23:24;25.40;83.20
9816;DHT22;4947;44.526;11.360;2022-08-06T04:25:54;25.40;83.30
9816;DHT22;4947;44.526;11.360;2022-08-06T04:28:24;25.50;82.90
9816;DHT22;4947;44.526;11.360;2022-08-06T04:30:54;25.50;82.80
9816;DHT22;4947;44.526;11.360;2022-08-06T04:33:23;25.50;83.00
9816;DHT22;4947;44.526;11.360;2022-08-06T04:35:53;25.50;83.20
9816;DHT22;4947;44.526;11.360;2022-08-06T04:38:23;25.60;83.10
9816;DHT22;4947;44.526;11.360;2022-08-06T04:40:51;25.60;83.00
9816;DHT22;4947;44.526;11.360;2022-08-06T04:43:19;25.60;83.80
9816;DHT22;4947;44.526;11.360;2022-08-06T04:45:47;25.70;83.20
9816;DHT22;4947;44.526;11.360;2022-08-06T04:48:15;25.70;83.10
9816;DHT22;4947;44.526;11.360;2022-08-06T04:50:43;25.80;83.50
9816;DHT22;4947;44.526;11.360;2022-08-06T04:53:15;25.80;83.00
9816;DHT22;4947;44.526;11.360;2022-08-06T04:55:45;25.80;82.90
9816;DHT22;4947;44.526;11.360;2022-08-06T04:58:15;25.90;82.40
9816;DHT22;4947;44.526;11.360;2022-08-06T05:00:45;25.90;82.60
9816;DHT22;4947;44.526;11.360;2022-08-06T05:03:13;25.90;83.00
9816;DHT22;4947;44.526;11.360;2022-08-06T05:05:45;25.80;82.60
9816;DHT22;4947;44.526;11.360;2022-08-06T05:08:15;26.00;83.00
9816;DHT22;4947;44.526;11.360;2022-08-06T05:10:47;26.00;82.60
9816;DHT22;4947;44.526;11.360;2022-08-06T05:13:20;26.20;82.50
9816;DHT22;4947;44.526;11.360;2022-08-06T05:15:55;26.20;82.00
9816;DHT22;4947;44.526;11.360;2022-08-06T05:18:25;26.30;81.50
9816;DHT22;4947;44.526;11.360;2022-08-06T05:20:55;26.40;81.10
9816;DHT22;4947;44.526;11.360;2022-08-06T05:23:28;26.60;80.30
9816;DHT22;4947;44.526;11.360;2022-08-06T05:25:56;26.70;80.50
9816;DHT22;4947;44.526;11.360;2022-08-06T05:28:24;26.90;80.00
9816;DHT22;4947;44.526;11.360;2022-08-06T05:30:52;27.30;78.30
9816;DHT22;4947;44.526;11.360;2022-08-06T05:33:24;28.10;74.20
9816;DHT22;4947;44.526;11.360;2022-08-06T05:35:52;28.90;70.50
9816;DHT22;4947;44.526;11.360;2022-08-06T05:38:19;29.70;67.40
9816;DHT22;4947;44.526;11.360;2022-08-06T05:40:49;30.40;65.60
9816;DHT22;4947;44.526;11.360;2022-08-06T05:43:17;30.90;63.20
9816;DHT22;4947;44.526;11.360;2022-08-06T05:45:46;31.10;61.60
9816;DHT22;4947;44.526;11.360;2022-08-06T05:48:18;30.90;61.50
9816;DHT22;4947;44.526;11.360;2022-08-06T05:50:49;31.00;61.30
9816;DHT22;4947;44.526;11.360;2022-08-06T05:53:23;31.30;60.30
9816;DHT22;4947;44.526;11.360;2022-08-06T05:55:56;31.80;59.20
9816;DHT22;4947;44.526;11.360;2022-08-06T05:58:28;32.90;57.40
9816;DHT22;4947;44.526;11.360;2022-08-06T06:01:00;33.80;54.90
9816;DHT22;4947;44.526;11.360;2022-08-06T06:03:28;34.20;53.20
9816;DHT22;4947;44.526;11.360;2022-08-06T06:05:57;34.00;53.50
9816;DHT22;4947;44.526;11.360;2022-08-06T06:08:26;34.70;52.20
9816;DHT22;4947;44.526;11.360;2022-08-06T06:10:56;35.40;50.60
9816;DHT22;4947;44.526;11.360;2022-08-06T06:13:24;35.60;49.10
9816;DHT22;4947;44.526;11.360;2022-08-06T06:16:00;35.70;48.70
9816;DHT22;4947;44.526;11.360;2022-08-06T06:18:45;36.00;48.80
9816;DHT22;4947;44.526;11.360;2022-08-06T06:21:23;36.10;48.00
9816;DHT22;4947;44.526;11.360;2022-08-06T06:23:55;37.00;47.30
9816;DHT22;4947;44.526;11.360;2022-08-06T06:29:15;37.50;45.60
9816;DHT22;4947;44.526;11.360;2022-08-06T06:31:54;36.80;46.20
9816;DHT22;4947;44.526;11.360;2022-08-06T06:34:29;37.60;45.20
9816;DHT22;4947;44.526;11.360;2022-08-06T06:37:03;37.30;45.30
9816;DHT22;4947;44.526;11.360;2022-08-06T06:39:38;37.10;45.40
9816;DHT22;4947;44.526;11.360;2022-08-06T06:42:12;37.20;45.60
9816;DHT22;4947;44.526;11.360;2022-08-06T06:44:44;37.40;44.70
9816;DHT22;4947;44.526;11.360;2022-08-06T06:47:18;37.50;45.00
9816;DHT22;4947;44.526;11.360;2022-08-06T06:50:01;38.10;43.40
9816;DHT22;4947;44.526;11.360;2022-08-06T06:52:34;37.80;43.80
9816;DHT22;4947;44.526;11.360;2022-08-06T06:55:05;37.90;43.10
9816;DHT22;4947;44.526;11.360;2022-08-06T06:57:38;37.90;43.30
9816;DHT22;4947;44.526;11.360;2022-08-06T07:00:09;37.90;42.90
9816;DHT22;4947;44.526;11.360;2022-08-06T07:02:38;37.70;43.40
9816;DHT22;4947;44.526;11.360;2022-08-06T07:05:08;37.40;42.40
9816;DHT22;4947;44.526;11.360;2022-08-06T07:07:39;37.50;42.70
9816;DHT22;4947;44.526;11.360;2022-08-06T07:10:10;37.90;43.40
9816;DHT22;4947;44.526;11.360;2022-08-06T07:12:42;37.70;42.70
9816;DHT22;4947;44.526;11.360;2022-08-06T07:15:11;37.70;42.70
9816;DHT22;4947;44.526;11.360;2022-08-06T07:17:39;37.60;42.90
9816;DHT22;4947;44.526;11.360;2022-08-06T07:20:09;37.40;42.70
9816;DHT22;4947;44.526;11.360;2022-08-06T07:22:41;37.60;43.10
9816;DHT22;4947;44.526;11.360;2022-08-06T07:25:12;38.20;42.50
9816;DHT22;4947;44.526;11.360;2022-08-06T07:27:44;37.80;42.40
9816;DHT22;4947;44.526;11.360;2022-08-06T07:30:13;38.10;42.10
9816;DHT22;4947;44.526;11.360;2022-08-06T07:32:42;38.00;42.10
9816;DHT22;4947;44.526;11.360;2022-08-06T07:35:11;38.60;42.20
9816;DHT22;4947;44.526;11.360;2022-08-06T07:37:42;38.90;41.80
9816;DHT22;4947;44.526;11.360;2022-08-06T07:40:19;39.10;40.90
9816;DHT22;4947;44.526;11.360;2022-08-06T07:42:53;38.90;41.00
9816;DHT22;4947;44.526;11.360;2022-08-06T07:45:23;39.10;41.30
9816;DHT22;4947;44.526;11.360;2022-08-06T07:47:51;39.10;40.10
9816;DHT22;4947;44.526;11.360;2022-08-06T07:50:23;38.90;40.10
9816;DHT22;4947;44.526;11.360;2022-08-06T07:52:53;39.00;40.60
9816;DHT22;4947;44.526;11.360;2022-08-06T07:55:22;38.90;40.50
9816;DHT22;4947;44.526;11.360;2022-08-06T07:57:52;39.00;40.40
9816;DHT22;4947;44.526;11.360;2022-08-06T08:00:20;39.40;40.20
9816;DHT22;4947;44.526;11.360;2022-08-06T08:02:48;39.90;39.50
9816;DHT22;4947;44.526;11.360;2022-08-06T08:05:29;39.60;39.40
9816;DHT22;4947;44.526;11.360;2022-08-06T08:08:14;39.70;39.10
9816;DHT22;4947;44.526;11.360;2022-08-06T08:10:42;40.20;39.30
9816;DHT22;4947;44.526;11.360;2022-08-06T08:13:11;39.70;39.00
9816;DHT22;4947;44.526;11.360;2022-08-06T08:15:40;39.20;39.60
9816;DHT22;4947;44.526;11.360;2022-08-06T08:18:08;39.00;40.20
9816;DHT22;4947;44.526;11.360;2022-08-06T08:20:38;38.70;40.50
9816;DHT22;4947;44.526;11.360;2022-08-06T08:23:07;38.30;40.90
9816;DHT22;4947;44.526;11.360;2022-08-06T08:25:34;38.40;40.90
9816;DHT22;4947;44.526;11.360;2022-08-06T08:28:02;38.70;40.40
9816;DHT22;4947;44.526;11.360;2022-08-06T08:30:31;39.20;40.20
9816;DHT22;4947;44.526;11.360;2022-08-06T08:32:59;39.40;39.60
9816;DHT22;4947;44.526;11.360;2022-08-06T08:35:26;39.20;39.60
9816;DHT22;4947;44.526;11.360;2022-08-06T08:37:54;39.30;40.20
9816;DHT22;4947;44.526;11.360;2022-08-06T08:40:22;39.50;39.60
9816;DHT22;4947;44.526;11.360;2022-08-06T08:42:51;39.70;39.10
9816;DHT22;4947;44.526;11.360;2022-08-06T08:45:21;39.60;39.40
9816;DHT22;4947;44.526;11.360;2022-08-06T08:47:52;39.80;39.00
9816;DHT22;4947;44.526;11.360;2022-08-06T08:50:23;39.60;38.70
9816;DHT22;4947;44.526;11.360;2022-08-06T08:52:52;39.20;39.30
9816;DHT22;4947;44.526;11.360;2022-08-06T08:55:25;39.40;40.20
9816;DHT22;4947;44.526;11.360;2022-08-06T08:57:52;39.50;40.10
9816;DHT22;4947;44.526;11.360;2022-08-06T09:00:21;39.70;39.60
9816;DHT22;4947;44.526;11.360;2022-08-06T09:02:50;39.70;39.70
9816;DHT22;4947;44.526;11.360;2022-08-06T09:05:17;40.00;38.80
9816;DHT22;4947;44.526;11.360;2022-08-06T09:07:45;39.40;39.50
9816;DHT22;4947;44.526;11.360;2022-08-06T09:10:13;39.70;39.30
9816;DHT22;4947;44.526;11.360;2022-08-06T09:12:41;40.20;38.90
9816;DHT22;4947;44.526;11.360;2022-08-06T09:15:09;40.10;38.60
9816;DHT22;4947;44.526;11.360;2022-08-06T09:17:37;40.50;38.30
9816;DHT22;4947;44.526;11.360;2022-08-06T09:20:07;40.50;38.80
9816;DHT22;4947;44.526;11.360;2022-08-06T09:22:35;40.50;39.20
9816;DHT22;4947;44.526;11.360;2022-08-06T09:25:03;40.90;38.40
9816;DHT22;4947;44.526;11.360;2022-08-06T09:27:33;41.00;37.70
9816;DHT22;4947;44.526;11.360;2022-08-06T09:30:05;40.80;37.80
9816;DHT22;4947;44.526;11.360;2022-08-06T09:32:37;41.00;37.90
9816;DHT22;4947;44.526;11.360;2022-08-06T09:35:18;41.50;37.40
9816;DHT22;4947;44.526;11.360;2022-08-06T09:37:46;41.60;37.30
9816;DHT22;4947;44.526;11.360;2022-08-06T09:40:15;41.60;37.50
9816;DHT22;4947;44.526;11.360;2022-08-06T09:42:44;41.80;37.40
9816;DHT22;4947;44.526;11.360;2022-08-06T09:45:15;41.60;37.00
9816;DHT22;4947;44.526;11.360;2022-08-06T09:47:44;41.30;36.20
9816;DHT22;4947;44.526;11.360;2022-08-06T09:50:12;41.50;36.70
9816;DHT22;4947;44.526;11.360;2022-08-06T09:53:00;41.20;37.10
9816;DHT22;4947;44.526;11.360;2022-08-06T09:55:29;41.20;37.00
9816;DHT22;4947;44.526;11.360;2022-08-06T09:57:56;40.60;37.10
9816;DHT22;4947;44.526;11.360;2022-08-06T10:00:26;40.40;37.80
9816;DHT22;4947;44.526;11.360;2022-08-06T10:02:57;40.10;37.90
9816;DHT22;4947;44.526;11.360;2022-08-06T10:05:26;39.80;38.90
9816;DHT22;4947;44.526;11.360;2022-08-06T10:08:14;39.40;38.40
9816;DHT22;4947;44.526;11.360;2022-08-06T10:10:44;39.10;38.60
9816;DHT22;4947;44.526;11.360;2022-08-06T10:13:21;39.00;39.60
9816;DHT22;4947;44.526;11.360;2022-08-06T10:15:50;38.60;39.10
9816;DHT22;4947;44.526;11.360;2022-08-06T10:18:33;38.30;40.00
9816;DHT22;4947;44.526;11.360;2022-08-06T10:21:03;38.30;40.60
9816;DHT22;4947;44.526;11.360;2022-08-06T10:23:34;38.30;40.30
9816;DHT22;4947;44.526;11.360;2022-08-06T10:26:03;38.40;40.60
9816;DHT22;4947;44.526;11.360;2022-08-06T10:28:33;38.20;40.60
9816;DHT22;4947;44.526;11.360;2022-08-06T10:31:02;38.00;40.50
9816;DHT22;4947;44.526;11.360;2022-08-06T10:33:34;37.90;40.20
9816;DHT22;4947;44.526;11.360;2022-08-06T10:36:07;37.50;40.30
9816;DHT22;4947;44.526;11.360;2022-08-06T10:38:38;37.60;40.90
9816;DHT22;4947;44.526;11.360;2022-08-06T10:41:08;37.60;40.90
9816;DHT22;4947;44.526;11.360;2022-08-06T10:43:37;37.80;40.80
9816;DHT22;4947;44.526;11.360;2022-08-06T10:46:06;37.70;40.80
9816;DHT22;4947;44.526;11.360;2022-08-06T10:48:35;37.80;39.90
9816;DHT22;4947;44.526;11.360;2022-08-06T10:51:04;37.70;39.90
9816;DHT22;4947;44.526;11.360;2022-08-06T10:53:33;37.80;39.80
9816;DHT22;4947;44.526;11.360;2022-08-06T10:56:04;37.80;40.80
9816;DHT22;4947;44.526;11.360;2022-08-06T10:58:33;37.70;40.40
9816;DHT22;4947;44.526;11.360;2022-08-06T11:01:05;37.60;40.20
9816;DHT22;4947;44.526;11.360;2022-08-06T11:03:54;37.30;41.20
9816;DHT22;4947;44.526;11.360;2022-08-06T11:06:43;37.40;41.10
9816;DHT22;4947;44.526;11.360;2022-08-06T11:09:22;37.70;41.00
9816;DHT22;4947;44.526;11.360;2022-08-06T11:12:14;37.80;40.30
9816;DHT22;4947;44.526;11.360;2022-08-06T11:14:45;37.60;39.80
9816;DHT22;4947;44.526;11.360;2022-08-06T11:17:13;37.40;39.70
9816;DHT22;4947;44.526;11.360;2022-08-06T11:19:42;37.20;39.50
9816;DHT22;4947;44.526;11.360;2022-08-06T11:22:32;37.10;40.30
9816;DHT22;4947;44.526;11.360;2022-08-06T11:25:00;36.90;41.00
9816;DHT22;4947;44.526;11.360;2022-08-06T11:27:49;37.00;40.50
9816;DHT22;4947;44.526;11.360;2022-08-06T11:30:17;37.20;41.20
9816;DHT22;4947;44.526;11.360;2022-08-06T11:32:47;37.20;40.60
9816;DHT22;4947;44.526;11.360;2022-08-06T11:35:40;37.10;40.80
9816;DHT22;4947;44.526;11.360;2022-08-06T11:38:10;37.10;40.50
9816;DHT22;4947;44.526;11.360;2022-08-06T11:40:56;37.20;40.70
9816;DHT22;4947;44.526;11.360;2022-08-06T11:43:45;37.20;40.70
9816;DHT22;4947;44.526;11.360;2022-08-06T11:46:18;37.30;40.90
9816;DHT22;4947;44.526;11.360;2022-08-06T11:49:17;37.20;40.70
9816;DHT22;4947;44.526;11.360;2022-08-06T11:51:47;37.40;40.50
9816;DHT22;4947;44.526;11.360;2022-08-06T11:54:16;37.50;39.60
9816;DHT22;4947;44.526;11.360;2022-08-06T11:57:18;37.50;40.00
9816;DHT22;4947;44.526;11.360;2022-08-06T12:00:03;37.50;39.50
9816;DHT22;4947;44.526;11.360;2022-08-06T12:02:53;37.60;38.80
9816;DHT22;4947;44.526;11.360;2022-08-06T12:05:45;37.60;38.30
9816;DHT22;4947;44.526;11.360;2022-08-06T12:08:24;37.50;37.50
9816;DHT22;4947;44.526;11.360;2022-08-06T12:11:20;37.10;38.20
9816;DHT22;4947;44.526;11.360;2022-08-06T12:13:48;37.10;39.20
9816;DHT22;4947;44.526;11.360;2022-08-06T12:16:38;37.10;39.60
9816;DHT22;4947;44.526;11.360;2022-08-06T12:19:12;37.10;39.50
9816;DHT22;4947;44.526;11.360;2022-08-06T12:21:43;37.10;40.40
9816;DHT22;4947;44.526;11.360;2022-08-06T12:24:11;37.20;40.00
9816;DHT22;4947;44.526;11.360;2022-08-06T12:26:39;37.30;39.20
9816;DHT22;4947;44.526;11.360;2022-08-06T12:29:07;37.30;39.10
9816;DHT22;4947;44.526;11.360;2022-08-06T12:31:37;37.20;38.60
9816;DHT22;4947;44.526;11.360;2022-08-06T12:34:05;37.30;37.30
9816;DHT22;4947;44.526;11.360;2022-08-06T12:36:34;37.30;36.70
9816;DHT22;4947;44.526;11.360;2022-08-06T12:39:05;37.20;35.90
9816;DHT22;4947;44.526;11.360;2022-08-06T12:41:42;37.20;35.90
9816;DHT22;4947;44.526;11.360;2022-08-06T12:44:10;37.20;37.20
9816;DHT22;4947;44.526;11.360;2022-08-06T12:46:40;37.00;37.10
9816;DHT22;4947;44.526;11.360;2022-08-06T12:49:07;36.80;37.90
9816;DHT22;4947;44.526;11.360;2022-08-06T12:51:35;36.90;38.60
9816;DHT22;4947;44.526;11.360;2022-08-06T12:54:05;36.90;39.00
9816;DHT22;4947;44.526;11.360;2022-08-06T12:56:36;36.90;39.00
9816;DHT22;4947;44.526;11.360;2022-08-06T12:59:08;37.10;38.80
9816;DHT22;4947;44.526;11.360;2022-08-06T13:01:36;37.30;38.90
9816;DHT22;4947;44.526;11.360;2022-08-06T13:04:08;37.50;38.90
9816;DHT22;4947;44.526;11.360;2022-08-06T13:06:37;37.70;37.90
9816;DHT22;4947;44.526;11.360;2022-08-06T13:09:05;37.70;36.90
9816;DHT22;4947;44.526;11.360;2022-08-06T13:11:34;37.60;37.40
9816;DHT22;4947;44.526;11.360;2022-08-06T13:14:08;37.40;37.80
9816;DHT22;4947;44.526;11.360;2022-08-06T13:16:44;37.40;38.10
9816;DHT22;4947;44.526;11.360;2022-08-06T13:19:16;37.40;36.70
9816;DHT22;4947;44.526;11.360;2022-08-06T13:21:57;37.30;36.90
9816;DHT22;4947;44.526;11.360;2022-08-06T13:24:26;37.20;37.30
9816;DHT22;4947;44.526;11.360;2022-08-06T13:26:54;37.10;38.20
9816;DHT22;4947;44.526;11.360;2022-08-06T13:29:24;36.90;38.70
9816;DHT22;4947;44.526;11.360;2022-08-06T13:32:01;36.90;38.30
9816;DHT22;4947;44.526;11.360;2022-08-06T13:34:44;37.00;37.90
9816;DHT22;4947;44.526;11.360;2022-08-06T13:37:12;37.00;38.30
9816;DHT22;4947;44.526;11.360;2022-08-06T13:39:49;37.10;37.80
9816;DHT22;4947;44.526;11.360;2022-08-06T13:42:16;37.10;38.70
9816;DHT22;4947;44.526;11.360;2022-08-06T13:44:45;36.80;38.80
9816;DHT22;4947;44.526;11.360;2022-08-06T13:47:14;36.80;38.10
9816;DHT22;4947;44.526;11.360;2022-08-06T13:49:54;36.90;38.20
9816;DHT22;4947;44.526;11.360;2022-08-06T13:52:21;37.00;37.80
9816;DHT22;4947;44.526;11.360;2022-08-06T13:54:49;37.20;38.00
9816;DHT22;4947;44.526;11.360;2022-08-06T13:57:17;37.40;37.70
9816;DHT22;4947;44.526;11.360;2022-08-06T13:59:45;37.30;38.00
9816;DHT22;4947;44.526;11.360;2022-08-06T14:02:12;37.40;37.40
9816;DHT22;4947;44.526;11.360;2022-08-06T14:04:41;37.40;36.80
9816;DHT22;4947;44.526;11.360;2022-08-06T14:07:12;37.40;37.30
9816;DHT22;4947;44.526;11.360;2022-08-06T14:09:39;37.50;37.00
9816;DHT22;4947;44.526;11.360;2022-08-06T14:12:06;37.50;37.30
9816;DHT22;4947;44.526;11.360;2022-08-06T14:14:36;37.50;36.90
9816;DHT22;4947;44.526;11.360;2022-08-06T14:17:03;37.60;37.30
9816;DHT22;4947;44.526;11.360;2022-08-06T14:19:31;37.60;36.70
9816;DHT22;4947;44.526;11.360;2022-08-06T14:21:58;37.60;36.90
9816;DHT22;4947;44.526;11.360;2022-08-06T14:24:28;37.40;36.90
9816;DHT22;4947;44.526;11.360;2022-08-06T14:26:55;37.30;37.10
9816;DHT22;4947;44.526;11.360;2022-08-06T14:29:23;37.30;36.90
9816;DHT22;4947;44.526;11.360;2022-08-06T14:31:50;37.30;36.70
9816;DHT22;4947;44.526;11.360;2022-08-06T14:34:18;37.30;37.20
9816;DHT22;4947;44.526;11.360;2022-08-06T14:36:46;37.30;37.60
9816;DHT22;4947;44.526;11.360;2022-08-06T14:39:14;37.20;37.80
9816;DHT22;4947;44.526;11.360;2022-08-06T14:41:43;37.20;37.00
9816;DHT22;4947;44.526;11.360;2022-08-06T14:44:28;37.30;37.20
9816;DHT22;4947;44.526;11.360;2022-08-06T14:47:14;37.30;36.90
9816;DHT22;4947;44.526;11.360;2022-08-06T14:49:42;37.30;37.70
9816;DHT22;4947;44.526;11.360;2022-08-06T14:52:10;37.20;37.20
9816;DHT22;4947;44.526;11.360;2022-08-06T14:54:38;37.20;37.00
9816;DHT22;4947;44.526;11.360;2022-08-06T14:57:11;37.30;38.00
9816;DHT22;4947;44.526;11.360;2022-08-06T14:59:39;37.30;37.10
9816;DHT22;4947;44.526;11.360;2022-08-06T15:02:06;37.30;36.90
9816;DHT22;4947;44.526;11.360;2022-08-06T15:04:34;37.40;36.80
9816;DHT22;4947;44.526;11.360;2022-08-06T15:07:02;37.30;36.20
9816;DHT22;4947;44.526;11.360;2022-08-06T15:09:30;37.40;36.50
9816;DHT22;4947;44.526;11.360;2022-08-06T15:11:58;37.50;36.40
9816;DHT22;4947;44.526;11.360;2022-08-06T15:14:27;37.40;37.00
9816;DHT22;4947;44.526;11.360;2022-08-06T15:16:55;37.50;36.50
9816;DHT22;4947;44.526;11.360;2022-08-06T15:19:23;37.50;36.30
9816;DHT22;4947;44.526;11.360;2022-08-06T15:21:51;37.30;36.60
9816;DHT22;4947;44.526;11.360;2022-08-06T15:24:18;37.40;36.50
9816;DHT22;4947;44.526;11.360;2022-08-06T15:26:46;37.20;36.30
9816;DHT22;4947;44.526;11.360;2022-08-06T15:29:14;37.30;37.00
9816;DHT22;4947;44.526;11.360;2022-08-06T15:31:43;37.30;36.90
9816;DHT22;4947;44.526;11.360;2022-08-06T15:34:14;37.50;36.80
9816;DHT22;4947;44.526;11.360;2022-08-06T15:36:42;37.50;37.20
9816;DHT22;4947;44.526;11.360;2022-08-06T15:39:09;37.60;37.10
9816;DHT22;4947;44.526;11.360;2022-08-06T15:41:37;37.50;37.10
9816;DHT22;4947;44.526;11.360;2022-08-06T15:44:04;37.40;36.90
9816;DHT22;4947;44.526;11.360;2022-08-06T15:46:34;37.20;37.90
9816;DHT22;4947;44.526;11.360;2022-08-06T15:49:03;37.10;38.90
9816;DHT22;4947;44.526;11.360;2022-08-06T15:51:32;37.10;37.80
9816;DHT22;4947;44.526;11.360;2022-08-06T15:53:59;37.10;37.30
9816;DHT22;4947;44.526;11.360;2022-08-06T15:56:27;37.20;38.10
9816;DHT22;4947;44.526;11.360;2022-08-06T15:58:55;37.10;38.10
9816;DHT22;4947;44.526;11.360;2022-08-06T16:01:23;37.20;38.00
9816;DHT22;4947;44.526;11.360;2022-08-06T16:03:51;37.30;37.90
9816;DHT22;4947;44.526;11.360;2022-08-06T16:06:20;37.30;38.30
9816;DHT22;4947;44.526;11.360;2022-08-06T16:08:48;37.20;38.40
9816;DHT22;4947;44.526;11.360;2022-08-06T16:11:17;37.20;40.00